Time;durP1;ratioP1;P1;durP2;ratioP2;P2;SDS_P1;SDS_P2;PMS_P1;PMS_P2;Temp;Humidity;BMP_temperature;BMP_pressure;BME280_temperature;BME280_humidity;BME280_pressure;Samples;Min_cycle;Max_cycle;Signal;HPM_P1;HPM_P2
2022/07/10 00:00:28;;;;;;;;;;;;;;;18.52;63.00;100627.31;6101151;23;1198;-96
2022/07/10 00:02:54;;;;;;;;;;;;;;;18.51;62.97;100630.34;6102816;23;1199;-95
2022/07/10 00:05:21;;;;;;;;;;;;;;;18.49;62.96;100636.03;6103592;23;1145;-95
2022/07/10 00:07:47;;;;;;;;;;;;;;;18.50;63.16;100628.69;6104071;23;1245;-96
2022/07/10 00:10:13;;;;;;;;;;;;;;;18.49;62.99;100627.03;6101589;23;1285;-96
2022/07/10 00:12:40;;;;;;;;;;;;;;;18.48;63.08;100631.69;6102430;23;1161;-95
2022/07/10 00:15:06;;;;;;;;;;;;;;;18.47;63.28;100640.97;6103690;23;1337;-95
2022/07/10 00:17:33;;;;;;;;;;;;;;;18.46;63.09;100627.59;6103462;23;1948;-95
2022/07/10 00:19:59;;;;;;;;;;;;;;;18.44;63.28;100636.03;6102710;23;1158;-95
2022/07/10 00:22:25;;;;;;;;;;;;;;;18.44;63.17;100629.75;6101850;23;1313;-95
2022/07/10 00:24:52;;;;;;;;;;;;;;;18.42;63.17;100629.22;6101842;23;1256;-95
2022/07/10 00:27:18;;;;;;;;;;;;;;;18.41;63.11;100631.13;6101017;23;1279;-95
2022/07/10 00:29:44;;;;;;;;;;;;;;;18.41;62.83;100635.75;6100097;23;1208;-95
2022/07/10 00:32:11;;;;;;;;;;;;;;;18.40;62.96;100640.41;6103180;23;1272;-96
2022/07/10 00:34:38;;;;;;;;;;;;;;;18.38;63.26;100632.50;6100077;23;1168;-95
2022/07/10 00:37:04;;;;;;;;;;;;;;;18.35;63.19;100635.75;6100704;23;1943;-96
2022/07/10 00:39:31;;;;;;;;;;;;;;;18.35;63.18;100634.91;6099875;23;1201;-95
2022/07/10 00:41:57;;;;;;;;;;;;;;;18.33;63.05;100627.03;6099985;23;1257;-96
2022/07/10 00:44:25;;;;;;;;;;;;;;;18.31;63.00;100629.19;6100845;23;1409;-95
2022/07/10 00:46:51;;;;;;;;;;;;;;;18.31;62.97;100640.09;6100679;23;1176;-95
2022/07/10 00:49:18;;;;;;;;;;;;;;;18.31;62.97;100637.38;6101621;23;1278;-95
2022/07/10 00:51:46;;;;;;;;;;;;;;;18.31;63.16;100639.28;6103158;23;1557;-96
2022/07/10 00:54:12;;;;;;;;;;;;;;;18.28;63.05;100634.38;6101715;23;1329;-95
2022/07/10 00:56:38;;;;;;;;;;;;;;;18.26;63.02;100642.81;6100453;23;1901;-95
2022/07/10 00:59:05;;;;;;;;;;;;;;;18.27;63.07;100643.66;6100644;23;1278;-95
2022/07/10 01:01:31;;;;;;;;;;;;;;;18.25;63.18;100645.81;6099655;23;1200;-95
2022/07/10 01:03:57;;;;;;;;;;;;;;;18.24;63.27;100641.47;6101679;23;1192;-95
2022/07/10 01:06:24;;;;;;;;;;;;;;;18.23;63.10;100646.06;6103102;23;1204;-95
2022/07/10 01:08:50;;;;;;;;;;;;;;;18.23;63.01;100646.06;6100925;23;1209;-96
2022/07/10 01:11:17;;;;;;;;;;;;;;;18.21;63.02;100650.19;6099886;23;1201;-95
2022/07/10 01:13:43;;;;;;;;;;;;;;;18.20;63.15;100649.34;6101303;23;1241;-95
2022/07/10 01:16:10;;;;;;;;;;;;;;;18.19;62.80;100649.63;6103295;23;1944;-95
2022/07/10 01:18:36;;;;;;;;;;;;;;;18.17;62.87;100647.97;6102697;23;1215;-95
2022/07/10 01:21:03;;;;;;;;;;;;;;;18.17;63.03;100649.88;6103407;23;1304;-95
2022/07/10 01:23:29;;;;;;;;;;;;;;;18.16;63.17;100645.50;6101548;23;1280;-95
2022/07/10 01:25:55;;;;;;;;;;;;;;;18.13;63.10;100649.59;6100929;23;1160;-95
2022/07/10 01:28:22;;;;;;;;;;;;;;;18.13;63.00;100648.78;6101193;23;1159;-95
2022/07/10 01:30:48;;;;;;;;;;;;;;;18.11;63.02;100657.22;6099301;23;1245;-95
2022/07/10 01:33:15;;;;;;;;;;;;;;;18.09;62.91;100656.66;6100369;23;1304;-95
2022/07/10 01:35:41;;;;;;;;;;;;;;;18.10;63.15;100662.94;6101592;23;1150;-96
2022/07/10 01:38:07;;;;;;;;;;;;;;;18.08;63.01;100665.09;6100286;23;1945;-96
2022/07/10 01:40:34;;;;;;;;;;;;;;;18.07;62.83;100660.75;6099611;23;1161;-96
2022/07/10 01:43:00;;;;;;;;;;;;;;;18.06;62.83;100664.53;6099801;23;1142;-96
2022/07/10 01:45:27;;;;;;;;;;;;;;;18.05;62.90;100669.19;6102078;23;1154;-95
2022/07/10 01:47:53;;;;;;;;;;;;;;;18.03;62.87;100667.81;6102342;23;1222;-95
2022/07/10 01:50:19;;;;;;;;;;;;;;;18.02;63.13;100661.53;6099755;23;1367;-95
2022/07/10 01:52:46;;;;;;;;;;;;;;;18.01;63.06;100668.09;6099732;23;1169;-95
2022/07/10 01:55:12;;;;;;;;;;;;;;;18.02;63.01;100666.97;6100465;23;1442;-95
2022/07/10 01:57:38;;;;;;;;;;;;;;;18.00;63.16;100668.34;6100494;23;1952;-95
2022/07/10 02:00:05;;;;;;;;;;;;;;;17.98;62.73;100665.88;6100132;23;1177;-95
2022/07/10 02:02:31;;;;;;;;;;;;;;;17.97;62.75;100664.25;6100456;23;1285;-96
2022/07/10 02:04:57;;;;;;;;;;;;;;;17.96;63.01;100668.06;6101972;23;1289;-96
2022/07/10 02:07:25;;;;;;;;;;;;;;;17.96;62.85;100665.31;6103134;23;1418;-95
2022/07/10 02:09:52;;;;;;;;;;;;;;;17.96;62.83;100672.69;6099934;23;1284;-96
2022/07/10 02:12:18;;;;;;;;;;;;;;;17.93;62.79;100666.69;6099753;23;1158;-95
2022/07/10 02:14:44;;;;;;;;;;;;;;;17.92;62.99;100666.97;6100514;23;1157;-95
2022/07/10 02:17:11;;;;;;;;;;;;;;;17.91;62.86;100668.03;6099790;23;1897;-96
2022/07/10 02:19:37;;;;;;;;;;;;;;;17.90;62.93;100669.94;6099582;23;1161;-95
2022/07/10 02:22:04;;;;;;;;;;;;;;;17.90;62.73;100674.56;6099825;23;1302;-96
2022/07/10 02:24:30;;;;;;;;;;;;;;;17.89;62.67;100676.47;6100389;23;1309;-96
2022/07/10 02:26:56;;;;;;;;;;;;;;;17.89;62.96;100683.84;6102040;23;1217;-96
2022/07/10 02:29:24;;;;;;;;;;;;;;;17.87;62.67;100675.09;6103454;23;1316;-96
2022/07/10 02:31:50;;;;;;;;;;;;;;;17.87;62.69;100678.63;6102558;23;1165;-96
2022/07/10 02:34:17;;;;;;;;;;;;;;;17.85;62.96;100669.94;6102147;23;1374;-96
2022/07/10 02:36:44;;;;;;;;;;;;;;;17.83;62.64;100672.09;6102300;23;1944;-95
2022/07/10 02:39:10;;;;;;;;;;;;;;;17.83;62.72;100679.44;6101183;23;1252;-96
2022/07/10 02:41:36;;;;;;;;;;;;;;;17.81;62.68;100679.69;6099396;23;1305;-96
2022/07/10 02:44:03;;;;;;;;;;;;;;;17.80;62.89;100679.97;6098249;23;1173;-96
2022/07/10 02:46:29;;;;;;;;;;;;;;;17.79;62.57;100678.31;6099360;23;1269;-96
2022/07/10 02:48:56;;;;;;;;;;;;;;;17.77;62.80;100684.03;6100261;23;1269;-95
2022/07/10 02:51:22;;;;;;;;;;;;;;;17.77;62.86;100683.19;6099633;23;1284;-95
2022/07/10 02:53:49;;;;;;;;;;;;;;;17.75;62.70;100688.91;6099348;23;1225;-95
2022/07/10 02:56:15;;;;;;;;;;;;;;;17.74;62.53;100684.53;6100342;23;1909;-95
2022/07/10 02:58:42;;;;;;;;;;;;;;;17.73;62.54;100690.25;6102680;23;1303;-96
2022/07/10 03:01:08;;;;;;;;;;;;;;;17.70;62.57;100695.13;6101056;23;1276;-95
2022/07/10 03:03:35;;;;;;;;;;;;;;;17.70;62.48;100691.59;6100860;23;1345;-96
2022/07/10 03:06:01;;;;;;;;;;;;;;;17.68;62.71;100696.50;6101622;23;1151;-96
2022/07/10 03:08:28;;;;;;;;;;;;;;;17.67;62.86;100700.28;6100931;23;1150;-96
2022/07/10 03:10:54;;;;;;;;;;;;;;;17.67;62.67;100692.13;6100788;23;1091;-96
2022/07/10 03:13:20;;;;;;;;;;;;;;;17.65;62.78;100703.28;6100738;23;1181;-96
2022/07/10 03:15:47;;;;;;;;;;;;;;;17.63;62.60;100700.00;6101536;23;1243;-95
2022/07/10 03:18:13;;;;;;;;;;;;;;;17.62;62.80;100694.84;6101067;23;1901;-96
2022/07/10 03:20:40;;;;;;;;;;;;;;;17.60;62.70;100697.81;6102521;23;1161;-95
2022/07/10 03:23:06;;;;;;;;;;;;;;;17.60;62.52;100705.16;6100687;23;1173;-95
2022/07/10 03:25:32;;;;;;;;;;;;;;;17.59;62.47;100701.63;6101292;23;1159;-95
2022/07/10 03:27:59;;;;;;;;;;;;;;;17.59;62.72;100703.50;6100631;23;1447;-96
2022/07/10 03:30:25;;;;;;;;;;;;;;;17.58;62.59;100712.75;6102294;23;1248;-96
2022/07/10 03:32:52;;;;;;;;;;;;;;;17.55;62.52;100700.47;6101188;23;1157;-95
2022/07/10 03:35:18;;;;;;;;;;;;;;;17.55;62.53;100705.13;6100446;23;1171;-95
2022/07/10 03:37:44;;;;;;;;;;;;;;;17.53;62.30;100704.53;6101170;23;1944;-95
2022/07/10 03:40:11;;;;;;;;;;;;;;;17.54;62.38;100706.22;6101059;23;1354;-95
2022/07/10 03:42:37;;;;;;;;;;;;;;;17.52;62.69;100717.34;6102408;23;1254;-95
2022/07/10 03:45:04;;;;;;;;;;;;;;;17.53;62.46;100715.44;6103543;23;1277;-96
2022/07/10 03:47:30;;;;;;;;;;;;;;;17.49;62.63;100715.16;6103638;23;1333;-95
2022/07/10 03:49:56;;;;;;;;;;;;;;;17.50;62.52;100724.97;6103513;23;1176;-95
2022/07/10 03:52:23;;;;;;;;;;;;;;;17.49;62.43;100723.31;6103887;23;1279;-95
2022/07/10 03:54:49;;;;;;;;;;;;;;;17.47;62.40;100715.44;6103043;23;1197;-95
2022/07/10 03:59:59;;;;;;;;;;;;;;;17.46;62.28;100723.84;6103462;23;1316;-96
2022/07/10 04:02:26;;;;;;;;;;;;;;;17.44;62.38;100732.28;6103934;23;1182;-96
2022/07/10 04:04:52;;;;;;;;;;;;;;;17.44;62.39;100728.72;6103662;23;1181;-95
2022/07/10 04:07:18;;;;;;;;;;;;;;;17.43;62.32;100727.09;6103459;23;1264;-95
2022/07/10 04:09:45;;;;;;;;;;;;;;;17.40;62.36;100727.59;6103200;23;1154;-96
2022/07/10 04:12:11;;;;;;;;;;;;;;;17.39;62.35;100728.69;6103717;23;1306;-95
2022/07/10 04:14:38;;;;;;;;;;;;;;;17.39;62.30;100728.69;6103045;23;1279;-95
2022/07/10 04:17:04;;;;;;;;;;;;;;;17.38;62.31;100727.88;6104191;23;1951;-95
2022/07/10 04:19:30;;;;;;;;;;;;;;;17.38;62.31;100729.75;6103454;23;1256;-95
2022/07/10 04:21:57;;;;;;;;;;;;;;;17.37;62.24;100730.84;6103557;23;1256;-95
2022/07/10 04:24:23;;;;;;;;;;;;;;;17.36;62.29;100729.22;6102437;23;1471;-95
2022/07/10 04:26:49;;;;;;;;;;;;;;;17.35;62.41;100731.09;6104460;23;1138;-95
2022/07/10 04:29:16;;;;;;;;;;;;;;;17.34;62.34;100734.09;6102684;23;1177;-95
2022/07/10 04:31:43;;;;;;;;;;;;;;;17.33;62.18;100732.47;6103945;23;1483;-95
2022/07/10 04:34:09;;;;;;;;;;;;;;;17.34;62.21;100728.66;6103179;23;1153;-95
2022/07/10 04:36:35;;;;;;;;;;;;;;;17.32;62.55;100726.19;6103180;23;1973;-95
2022/07/10 04:39:02;;;;;;;;;;;;;;;17.31;62.21;100730.00;6102927;23;1210;-95
2022/07/10 04:41:28;;;;;;;;;;;;;;;17.31;61.93;100734.63;6100966;23;1169;-95
2022/07/10 04:43:55;;;;;;;;;;;;;;;17.32;62.13;100741.69;6099740;23;1314;-95
2022/07/10 04:46:21;;;;;;;;;;;;;;;17.30;62.04;100733.81;6124943;23;1180;-95
2022/07/10 04:48:47;;;;;;;;;;;;;;;17.29;62.18;100734.88;6100212;23;1185;-94
2022/07/10 04:51:14;;;;;;;;;;;;;;;17.28;61.76;100737.88;6100006;23;1145;-95
2022/07/10 04:53:40;;;;;;;;;;;;;;;17.28;61.99;100746.03;6099091;23;1370;-95
2022/07/10 04:56:07;;;;;;;;;;;;;;;17.27;61.83;100752.56;6103314;23;1251;-95
2022/07/10 04:58:33;;;;;;;;;;;;;;;17.27;61.84;100747.94;6102235;23;1893;-96
2022/07/10 05:01:00;;;;;;;;;;;;;;;17.24;61.73;100741.09;6106719;23;1246;-95
2022/07/10 05:03:26;;;;;;;;;;;;;;;17.24;61.73;100741.09;6127436;23;1248;-94
2022/07/10 05:05:52;;;;;;;;;;;;;;;17.25;61.82;100741.91;6101302;23;1269;-93
2022/07/10 05:08:19;;;;;;;;;;;;;;;17.24;61.79;100737.56;6124952;23;1337;-92
2022/07/10 05:10:45;;;;;;;;;;;;;;;17.23;61.72;100733.19;6122874;23;1267;-93
2022/07/10 05:13:12;;;;;;;;;;;;;;;17.22;61.76;100745.97;6123308;23;1232;-93
2022/07/10 05:15:38;;;;;;;;;;;;;;;17.23;61.86;100744.88;6124456;23;1260;-93
2022/07/10 05:18:05;;;;;;;;;;;;;;;17.22;61.77;100739.72;6124071;23;1905;-94
2022/07/10 05:20:32;;;;;;;;;;;;;;;17.22;61.71;100740.53;6125674;23;1202;-93
2022/07/10 05:22:58;;;;;;;;;;;;;;;17.22;61.90;100745.16;6123681;23;1149;-94
2022/07/10 05:25:26;;;;;;;;;;;;;;;17.21;61.73;100740.81;6127900;23;1100;-93
2022/07/10 05:27:52;;;;;;;;;;;;;;;17.20;61.73;100745.41;6126874;23;1385;-93
2022/07/10 05:30:19;;;;;;;;;;;;;;;17.18;61.55;100744.88;6102347;23;1257;-94
2022/07/10 05:32:45;;;;;;;;;;;;;;;17.17;61.73;100743.19;6101963;23;1219;-93
2022/07/10 05:35:12;;;;;;;;;;;;;;;17.17;61.66;100748.66;6126349;23;1121;-93
2022/07/10 05:37:38;;;;;;;;;;;;;;;17.16;61.86;100760.63;6126831;23;1909;-93
2022/07/10 05:40:04;;;;;;;;;;;;;;;17.17;61.52;100761.44;6125341;23;1297;-93
2022/07/10 05:42:31;;;;;;;;;;;;;;;17.18;61.68;100765.81;6101571;23;1173;-94
2022/07/10 05:44:57;;;;;;;;;;;;;;;17.15;61.51;100748.09;6126847;23;1281;-94
2022/07/10 05:47:24;;;;;;;;;;;;;;;17.14;61.51;100742.91;6128589;23;961;-94
2022/07/10 05:49:50;;;;;;;;;;;;;;;17.14;61.53;100754.59;6127403;23;1239;-93
2022/07/10 05:52:16;;;;;;;;;;;;;;;17.14;61.69;100760.06;6126701;23;1170;-94
2022/07/10 05:54:43;;;;;;;;;;;;;;;17.14;61.44;100768.22;6126293;23;1143;-94
2022/07/10 05:57:09;;;;;;;;;;;;;;;17.15;61.59;100764.44;6103174;23;1893;-94
2022/07/10 05:59:35;;;;;;;;;;;;;;;17.16;61.55;100765.25;6126949;23;1219;-93
2022/07/10 06:02:02;;;;;;;;;;;;;;;17.12;61.46;100751.34;6101800;23;1161;-94
2022/07/10 06:04:28;;;;;;;;;;;;;;;17.13;61.43;100752.97;6128320;23;1072;-93
2022/07/10 06:06:54;;;;;;;;;;;;;;;17.13;61.48;100752.16;6102966;23;1241;-94
2022/07/10 06:09:21;;;;;;;;;;;;;;;17.14;61.53;100745.63;6102347;23;1235;-94
2022/07/10 06:11:48;;;;;;;;;;;;;;;17.11;61.41;100751.59;6101866;23;1282;-94
2022/07/10 06:14:14;;;;;;;;;;;;;;;17.10;61.38;100745.34;6101481;23;1266;-94
2022/07/10 06:16:40;;;;;;;;;;;;;;;17.11;61.31;100755.13;6102785;23;1267;-94
2022/07/10 06:19:07;;;;;;;;;;;;;;;17.10;61.25;100753.50;6102633;23;1901;-94
2022/07/10 06:21:33;;;;;;;;;;;;;;;17.08;61.42;100746.66;6102404;23;1181;-93
2022/07/10 06:24:00;;;;;;;;;;;;;;;17.10;61.10;100748.06;6102017;23;1266;-94
2022/07/10 06:26:26;;;;;;;;;;;;;;;17.08;61.19;100752.91;6102086;23;1205;-95
2022/07/10 06:28:52;;;;;;;;;;;;;;;17.07;61.23;100748.56;6101075;23;1252;-94
2022/07/10 06:31:19;;;;;;;;;;;;;;;17.09;61.39;100746.41;6102718;23;1151;-94
2022/07/10 06:33:45;;;;;;;;;;;;;;;17.07;61.14;100755.91;6103687;23;1259;-94
2022/07/10 06:36:12;;;;;;;;;;;;;;;17.07;60.96;100750.47;6104430;23;1257;-94
2022/07/10 06:38:38;;;;;;;;;;;;;;;17.08;61.02;100754.81;6103420;23;1935;-93
2022/07/10 06:41:05;;;;;;;;;;;;;;;17.08;60.96;100757.53;6103958;23;1303;-94
2022/07/10 06:43:31;;;;;;;;;;;;;;;17.05;61.16;100749.91;6104317;23;1257;-94
2022/07/10 06:45:58;;;;;;;;;;;;;;;17.04;61.08;100743.66;6103755;23;1136;-94
2022/07/10 06:48:24;;;;;;;;;;;;;;;17.06;61.16;100749.66;6102970;23;1122;-94
2022/07/10 06:50:50;;;;;;;;;;;;;;;17.08;60.79;100754.81;6104367;23;1248;-94
2022/07/10 06:53:17;;;;;;;;;;;;;;;17.05;61.26;100750.72;6103386;23;1375;-94
2022/07/10 06:55:43;;;;;;;;;;;;;;;17.07;60.94;100753.19;6130064;23;810;-94
2022/07/10 06:58:10;;;;;;;;;;;;;;;17.09;60.83;100749.13;6102180;23;1901;-94
2022/07/10 07:00:36;;;;;;;;;;;;;;;17.08;60.76;100754.81;6102355;23;1315;-93
2022/07/10 07:03:02;;;;;;;;;;;;;;;17.09;60.76;100748.28;6103422;23;1265;-94
2022/07/10 07:05:29;;;;;;;;;;;;;;;17.09;60.69;100748.28;6104322;23;1332;-94
2022/07/10 07:07:55;;;;;;;;;;;;;;;17.08;60.70;100752.09;6102915;23;1155;-94
2022/07/10 07:10:21;;;;;;;;;;;;;;;17.08;60.63;100752.09;6103726;23;1133;-95
2022/07/10 07:12:48;;;;;;;;;;;;;;;17.08;60.63;100752.91;6103301;23;1167;-93
2022/07/10 07:15:16;;;;;;;;;;;;;;;17.07;60.60;100759.44;6104267;23;1245;-94
2022/07/10 07:18:07;;;;;;;;;;;;;;;17.09;60.85;100753.75;6127134;23;1932;-94
2022/07/10 07:23:17;;;;;;;;;;;;;;;17.08;60.79;100752.91;6103725;23;1176;-94
2022/07/10 07:25:46;;;;;;;;;;;;;;;17.09;60.58;100754.59;6102919;23;1234;-94
2022/07/10 07:28:15;;;;;;;;;;;;;;;17.07;60.57;100761.34;6103057;23;1150;-94
2022/07/10 07:30:41;;;;;;;;;;;;;;;17.07;60.54;100761.34;6104138;23;1136;-94
2022/07/10 07:33:07;;;;;;;;;;;;;;;17.03;60.53;100756.44;6103378;23;1149;-94
2022/07/10 07:35:34;;;;;;;;;;;;;;;17.04;60.41;100762.69;6104352;23;1245;-94
2022/07/10 07:38:00;;;;;;;;;;;;;;;17.07;60.47;100759.44;6103066;23;1929;-94
2022/07/10 07:40:26;;;;;;;;;;;;;;;17.07;60.52;100764.91;6103048;23;1172;-94
2022/07/10 07:42:53;;;;;;;;;;;;;;;17.08;60.19;100758.38;6103216;23;1247;-93
2022/07/10 07:45:20;;;;;;;;;;;;;;;17.08;60.38;100761.09;6104091;23;1198;-93
2022/07/10 07:47:46;;;;;;;;;;;;;;;17.10;60.38;100769.00;6127656;23;1293;-94
2022/07/10 07:50:12;;;;;;;;;;;;;;;17.09;60.35;100756.47;6103417;23;1218;-94
2022/07/10 07:52:39;;;;;;;;;;;;;;;17.07;60.21;100764.91;6103505;23;1237;-94
2022/07/10 07:55:05;;;;;;;;;;;;;;;17.07;60.23;100764.91;6103657;23;1242;-94
2022/07/10 07:57:31;;;;;;;;;;;;;;;17.07;60.56;100767.63;6102795;23;1909;-94
2022/07/10 07:59:58;;;;;;;;;;;;;;;17.06;60.20;100757.81;6103151;23;1269;-94
2022/07/10 08:02:24;;;;;;;;;;;;;;;17.07;60.52;100766.78;6103690;23;1281;-94
2022/07/10 08:04:50;;;;;;;;;;;;;;;17.07;59.91;100767.63;6103903;23;1160;-94
2022/07/10 08:07:17;;;;;;;;;;;;;;;17.07;60.42;100767.63;6104727;23;1181;-94
2022/07/10 08:09:44;;;;;;;;;;;;;;;17.08;60.53;100776.59;6103038;23;1141;-94
2022/07/10 08:12:10;;;;;;;;;;;;;;;17.07;60.84;100773.06;6103816;23;1142;-94
2022/07/10 08:14:37;;;;;;;;;;;;;;;17.07;60.48;100772.25;6103239;23;1270;-95
2022/07/10 08:17:03;;;;;;;;;;;;;;;17.07;60.57;100772.25;6103606;23;1142;-94
2022/07/10 08:19:29;;;;;;;;;;;;;;;17.08;60.63;100777.41;6102295;23;1909;-94
2022/07/10 08:21:56;;;;;;;;;;;;;;;17.07;60.43;100772.25;6103579;23;1306;-94
2022/07/10 08:24:22;;;;;;;;;;;;;;;17.08;60.67;100777.41;6102798;23;1240;-94
2022/07/10 08:26:48;;;;;;;;;;;;;;;17.08;60.51;100771.16;6101765;23;1153;-94
2022/07/10 08:29:15;;;;;;;;;;;;;;;17.09;60.50;100770.06;6101317;23;1250;-94
2022/07/10 08:31:41;;;;;;;;;;;;;;;17.09;59.98;100767.34;6102798;23;1149;-95
2022/07/10 08:34:08;;;;;;;;;;;;;;;17.09;60.32;100767.34;6103306;23;1194;-95
2022/07/10 08:36:34;;;;;;;;;;;;;;;17.09;60.50;100767.34;6103208;23;1267;-95
2022/07/10 08:39:01;;;;;;;;;;;;;;;17.08;60.73;100769.25;6102667;23;1897;-95
2022/07/10 08:41:27;;;;;;;;;;;;;;;17.08;60.85;100771.97;6127344;23;799;-95
2022/07/10 08:43:54;;;;;;;;;;;;;;;17.08;60.76;100774.69;6102773;23;1181;-95
2022/07/10 08:46:20;;;;;;;;;;;;;;;17.08;60.93;100771.97;6104642;23;1252;-94
2022/07/10 08:48:46;;;;;;;;;;;;;;;17.08;60.62;100780.13;6105266;23;1284;-96
2022/07/10 08:51:15;;;;;;;;;;;;;;;17.08;60.73;100782.84;6105256;23;1232;-96
2022/07/10 08:53:41;;;;;;;;;;;;;;;17.09;60.00;100783.66;6103244;23;1273;-96
2022/07/10 08:56:07;;;;;;;;;;;;;;;17.10;60.37;100785.34;6104900;23;1209;-96
2022/07/10 08:58:34;;;;;;;;;;;;;;;17.09;60.67;100787.25;6104640;23;1940;-95
2022/07/10 09:01:00;;;;;;;;;;;;;;;17.09;60.75;100783.66;6103726;23;1326;-96
2022/07/10 09:03:27;;;;;;;;;;;;;;;17.10;60.96;100775.25;6104389;23;1289;-96
2022/07/10 09:05:55;;;;;;;;;;;;;;;17.10;60.69;100771.72;6104076;23;1186;-96
2022/07/10 09:08:22;;;;;;;;;;;;;;;17.09;60.65;100775.50;6103838;23;1256;-96
2022/07/10 09:10:48;;;;;;;;;;;;;;;17.09;60.62;100781.78;6103955;23;1171;-96
2022/07/10 09:13:14;;;;;;;;;;;;;;;17.12;60.48;100785.88;6103150;23;1173;-96
2022/07/10 09:15:41;;;;;;;;;;;;;;;17.11;59.85;100782.34;6104243;23;1258;-96
2022/07/10 09:18:07;;;;;;;;;;;;;;;17.12;59.91;100777.72;6106772;23;1901;-96
2022/07/10 09:20:33;;;;;;;;;;;;;;;17.12;59.94;100767.66;6104097;23;1292;-96
2022/07/10 09:23:00;;;;;;;;;;;;;;;17.13;59.68;100776.66;6104056;23;1147;-96
2022/07/10 09:25:26;;;;;;;;;;;;;;;17.14;60.50;100779.09;6103019;23;1296;-96
2022/07/10 09:27:54;;;;;;;;;;;;;;;17.15;60.63;100780.75;6103240;23;1144;-95
2022/07/10 09:30:20;;;;;;;;;;;;;;;17.14;60.08;100778.28;6103097;23;1234;-95
2022/07/10 09:32:46;;;;;;;;;;;;;;;17.15;60.49;100779.94;6102702;23;1141;-95
2022/07/10 09:38:22;;;;;;;;;;;;;;;17.16;59.64;100779.66;6138613;23;1893;-94
2022/07/10 09:40:49;;;;;;;;;;;;;;;17.16;60.56;100782.38;6106969;23;1313;-96
2022/07/10 09:43:15;;;;;;;;;;;;;;;17.17;59.24;100777.75;6105339;23;1344;-94
2022/07/10 09:45:42;;;;;;;;;;;;;;;17.16;60.24;100774.22;6107033;23;1355;-96
2022/07/10 09:48:08;;;;;;;;;;;;;;;17.16;60.13;100782.38;6107194;23;1165;-95
2022/07/10 09:50:34;;;;;;;;;;;;;;;17.18;60.10;100771.25;6103200;23;1285;-93
2022/07/10 09:53:01;;;;;;;;;;;;;;;17.18;60.42;100771.25;6104545;23;1296;-94
2022/07/10 09:55:29;;;;;;;;;;;;;;;17.17;60.48;100762.25;6102651;23;1219;-93
2022/07/10 09:57:56;;;;;;;;;;;;;;;17.18;60.23;100769.34;6101396;23;1354;-94
2022/07/10 10:00:25;;;;;;;;;;;;;;;17.20;60.50;100771.81;6100185;23;1259;-92
2022/07/10 10:02:51;;;;;;;;;;;;;;;17.20;59.97;100763.63;6125921;23;1158;-94
2022/07/10 10:05:17;;;;;;;;;;;;;;;17.21;60.20;100768.03;6127277;23;1233;-93
2022/07/10 10:07:44;;;;;;;;;;;;;;;17.21;60.21;100760.69;6105097;23;1256;-95
2022/07/10 10:10:12;;;;;;;;;;;;;;;17.21;60.79;100751.69;6104849;23;1199;-94
2022/07/10 10:12:39;;;;;;;;;;;;;;;17.24;60.49;100759.34;6128230;23;1268;-92
2022/07/10 10:15:05;;;;;;;;;;;;;;;17.22;60.02;100759.59;6101609;23;1286;-93
2022/07/10 10:17:31;;;;;;;;;;;;;;;17.22;60.24;100751.41;6128632;23;1224;-93
2022/07/10 10:22:42;;;;;;;;;;;;;;;17.24;60.68;100749.28;6103574;23;1373;-93
2022/07/10 10:25:08;;;;;;;;;;;;;;;17.24;60.89;100749.28;6129266;23;1212;-93
2022/07/10 10:27:35;;;;;;;;;;;;;;;17.27;60.74;100744.41;6130283;23;1092;-91
2022/07/10 10:30:01;;;;;;;;;;;;;;;17.27;59.65;100744.41;6103945;23;1220;-92
2022/07/10 10:32:28;;;;;;;;;;;;;;;17.27;60.19;100742.50;6129680;23;1021;-92
2022/07/10 10:34:57;;;;;;;;;;;;;;;17.27;60.13;100749.84;6127907;23;1317;-92
2022/07/10 10:37:23;;;;;;;;;;;;;;;17.28;59.30;100746.03;6128801;23;1260;-92
2022/07/10 10:39:49;;;;;;;;;;;;;;;17.30;59.68;100750.13;6128756;23;1901;-92
2022/07/10 10:42:16;;;;;;;;;;;;;;;17.30;59.84;100750.13;6127879;23;1443;-92
2022/07/10 10:44:42;;;;;;;;;;;;;;;17.31;60.46;100750.94;6103666;23;1402;-93
2022/07/10 10:47:09;;;;;;;;;;;;;;;17.31;60.56;100746.31;6104384;23;1260;-92
2022/07/10 10:49:35;;;;;;;;;;;;;;;17.31;60.67;100746.31;6128451;23;1092;-93
2022/07/10 10:52:02;;;;;;;;;;;;;;;17.32;60.44;100753.41;6128170;23;1220;-92
2022/07/10 10:54:29;;;;;;;;;;;;;;;17.33;59.86;100754.25;6126688;23;1157;-93
2022/07/10 10:56:55;;;;;;;;;;;;;;;17.34;59.42;100753.16;6103966;23;1158;-93
2022/07/10 10:59:21;;;;;;;;;;;;;;;17.35;60.14;100752.06;6128813;23;1943;-93
2022/07/10 11:01:48;;;;;;;;;;;;;;;17.35;58.99;100754.78;6144986;23;1334;-93
2022/07/10 11:04:15;;;;;;;;;;;;;;;17.37;59.93;100764.34;6098445;23;1282;-93
2022/07/10 11:06:41;;;;;;;;;;;;;;;17.38;60.38;100759.72;6096915;23;1360;-93
2022/07/10 11:09:08;;;;;;;;;;;;;;;17.39;59.66;100758.66;6100316;23;1159;-92
2022/07/10 11:11:35;;;;;;;;;;;;;;;17.39;60.53;100764.09;6094713;23;1361;-93
2022/07/10 11:14:02;;;;;;;;;;;;;;;17.39;60.01;100764.91;6099575;23;1115;-94
2022/07/10 11:16:32;;;;;;;;;;;;;;;17.41;60.12;100761.91;6097046;23;1227;-93
2022/07/10 11:18:58;;;;;;;;;;;;;;;17.42;59.19;100764.38;6095877;23;1933;-93
2022/07/10 11:21:24;;;;;;;;;;;;;;;17.44;59.33;100764.09;6098391;23;803;-92
2022/07/10 11:23:51;;;;;;;;;;;;;;;17.45;59.31;100763.06;6098658;23;1244;-93
2022/07/10 11:26:20;;;;;;;;;;;;;;;17.45;59.56;100769.31;6097089;23;1252;-91
2022/07/10 11:28:46;;;;;;;;;;;;;;;17.46;60.36;100759.22;6093246;23;1288;-91
2022/07/10 11:31:12;;;;;;;;;;;;;;;17.47;59.77;100758.16;6098855;23;1209;-92
2022/07/10 11:33:39;;;;;;;;;;;;;;;17.48;59.67;100755.19;6098019;23;1292;-93
2022/07/10 11:36:05;;;;;;;;;;;;;;;17.48;59.63;100760.63;6099347;23;1291;-93
2022/07/10 11:38:32;;;;;;;;;;;;;;;17.49;60.06;100759.53;6098627;23;1935;-93
2022/07/10 11:40:58;;;;;;;;;;;;;;;17.51;60.57;100753.84;6098054;23;1186;-96
2022/07/10 11:43:25;;;;;;;;;;;;;;;17.52;59.97;100751.94;6098862;23;1173;-92
2022/07/10 11:45:52;;;;;;;;;;;;;;;17.51;60.62;100756.56;6099029;23;1370;-93
2022/07/10 11:48:18;;;;;;;;;;;;;;;17.51;61.09;100758.47;6098476;23;1173;-93
2022/07/10 11:50:44;;;;;;;;;;;;;;;17.52;60.99;100758.19;6098195;23;1188;-92
2022/07/10 11:53:11;;;;;;;;;;;;;;;17.53;60.69;100751.69;6096496;23;1234;-93
2022/07/10 11:55:40;;;;;;;;;;;;;;;17.55;60.23;100757.66;6096804;23;1370;-93
2022/07/10 11:58:06;;;;;;;;;;;;;;;17.56;59.50;100756.59;6097322;23;788;-94
2022/07/10 12:00:33;;;;;;;;;;;;;;;17.58;60.41;100754.41;6102532;23;1945;-93
2022/07/10 12:02:59;;;;;;;;;;;;;;;17.59;60.35;100761.53;6103468;23;1171;-92
2022/07/10 12:05:25;;;;;;;;;;;;;;;17.59;59.93;100749.78;6103653;23;1169;-93
2022/07/10 12:07:52;;;;;;;;;;;;;;;17.60;60.13;100749.53;6102545;23;1371;-94
2022/07/10 12:10:18;;;;;;;;;;;;;;;17.62;60.89;100749.28;6100288;23;1169;-94
2022/07/10 12:12:45;;;;;;;;;;;;;;;17.62;59.53;100746.56;6100588;23;1488;-92
2022/07/10 12:15:11;;;;;;;;;;;;;;;17.63;60.88;100751.75;6125763;23;1228;-92
2022/07/10 12:17:37;;;;;;;;;;;;;;;17.64;60.85;100742.47;6129045;23;1092;-92
2022/07/10 12:20:04;;;;;;;;;;;;;;;17.65;60.95;100749.59;6125914;23;1970;-92
2022/07/10 12:22:30;;;;;;;;;;;;;;;17.67;60.93;100741.13;6101927;23;1138;-92
2022/07/10 12:24:56;;;;;;;;;;;;;;;17.67;61.06;100739.22;6100558;23;1146;-92
2022/07/10 12:27:23;;;;;;;;;;;;;;;17.68;60.91;100745.53;6101850;23;1351;-93
2022/07/10 12:29:49;;;;;;;;;;;;;;;17.69;60.63;100747.97;6126083;23;1303;-94
2022/07/10 12:32:19;;;;;;;;;;;;;;;17.70;60.83;100749.59;6100359;23;1228;-93
2022/07/10 12:34:46;;;;;;;;;;;;;;;17.72;61.31;100743.91;6099955;23;1232;-93
2022/07/10 12:37:12;;;;;;;;;;;;;;;17.74;60.71;100744.47;6126269;23;1302;-93
2022/07/10 12:39:39;;;;;;;;;;;;;;;17.76;61.00;100741.47;6102739;23;1948;-93
2022/07/10 12:42:05;;;;;;;;;;;;;;;17.75;61.22;100743.38;6100662;23;1205;-93
2022/07/10 12:44:32;;;;;;;;;;;;;;;17.77;61.26;100743.13;6100031;23;1373;-92
2022/07/10 12:46:58;;;;;;;;;;;;;;;17.79;61.51;100740.97;6100119;23;1247;-92
2022/07/10 12:49:24;;;;;;;;;;;;;;;17.80;61.67;100746.16;6100298;23;1221;-93
2022/07/10 12:51:50;;;;;;;;;;;;;;;17.81;61.74;100747.00;6100578;23;1235;-92
2022/07/10 12:54:17;;;;;;;;;;;;;;;17.81;61.50;100745.06;6100350;23;1340;-93